createdAt,value
2018-06-11T00:00:41.452Z,96130.91
2018-06-11T00:03:08.773Z,96138.88
2018-06-11T00:05:36.109Z,96132.25
2018-06-11T00:08:03.628Z,96120.98
2018-06-11T00:10:30.985Z,96116.69
2018-06-11T00:12:58.353Z,96113.37
2018-06-11T00:15:25.628Z,96112.75
2018-06-11T00:17:52.950Z,96098.87
2018-06-11T00:20:20.267Z,96101.19
2018-06-11T00:22:47.559Z,96094.58
2018-06-11T00:25:14.809Z,96090.77
2018-06-11T00:27:42.157Z,96095.38
2018-06-11T00:30:09.444Z,96093.41
2018-06-11T00:32:36.783Z,96098.05
2018-06-11T00:35:04.096Z,96098.88
2018-06-11T00:37:31.445Z,96091.44
2018-06-11T00:39:58.713Z,96091.92
2018-06-11T00:42:25.956Z,96084.69
2018-06-11T00:44:53.215Z,96081.23
2018-06-11T00:47:20.527Z,96082.69
2018-06-11T00:49:47.853Z,96068.48
2018-06-11T00:52:15.178Z,96064.68
2018-06-11T00:54:42.479Z,96060.36
2018-06-11T00:57:09.700Z,96073.40
2018-06-11T00:59:37.034Z,96071.11
2018-06-11T01:02:04.354Z,96072.43
2018-06-11T01:04:31.594Z,96071.78
2018-06-11T01:06:58.938Z,96067.46
2018-06-11T01:09:26.233Z,96062.87
2018-06-11T01:11:53.581Z,96061.95
2018-06-11T01:14:20.958Z,96062.59
2018-06-11T01:16:48.367Z,96054.32
2018-06-11T01:19:15.596Z,96049.72
2018-06-11T01:21:42.947Z,96048.58
2018-06-11T01:24:10.267Z,96040.14
2018-06-11T01:26:37.632Z,95938.94
2018-06-11T01:29:04.905Z,96050.03
2018-06-11T01:31:32.161Z,96051.04
2018-06-11T01:33:59.512Z,96043.45
2018-06-11T01:36:26.749Z,96040.80
2018-06-11T01:38:54.049Z,96037.16
2018-06-11T01:41:21.298Z,96033.86
2018-06-11T01:43:48.516Z,96040.30
2018-06-11T01:46:15.825Z,96040.46
2018-06-11T01:48:43.182Z,96040.30
2018-06-11T01:51:10.509Z,96045.91
2018-06-11T01:53:38.008Z,96039.45
2018-06-11T01:56:05.661Z,96037.98
2018-06-11T01:58:32.941Z,96038.97
2018-06-11T02:01:00.189Z,96022.63
2018-06-11T02:03:27.507Z,96022.94
2018-06-11T02:05:54.779Z,96020.31
2018-06-11T02:08:22.144Z,96015.36
2018-06-11T02:10:49.461Z,96019.31
2018-06-11T02:13:16.736Z,96013.72
2018-06-11T02:15:44.080Z,96021.45
2018-06-11T02:18:11.402Z,96016.36
2018-06-11T02:20:38.717Z,96020.64
2018-06-11T02:23:06.054Z,96018.66
2018-06-11T02:25:33.346Z,96017.34
2018-06-11T02:28:00.596Z,96018.50
2018-06-11T02:30:27.862Z,96021.63
2018-06-11T02:32:55.238Z,96018.83
2018-06-11T02:35:22.495Z,96018.50
2018-06-11T02:37:49.753Z,96017.99
2018-06-11T02:40:17.025Z,96012.89
2018-06-11T02:42:44.353Z,96016.02
2018-06-11T02:45:11.599Z,96013.86
2018-06-11T02:47:38.918Z,96016.84
2018-06-11T02:50:06.249Z,95916.83
2018-06-11T02:52:33.658Z,96014.68
2018-06-11T02:55:01.086Z,96017.49
2018-06-11T02:57:28.369Z,96028.41
2018-06-11T02:59:55.743Z,96023.93
2018-06-11T03:02:23.009Z,96027.21
2018-06-11T03:04:50.317Z,96030.04
2018-06-11T03:07:17.592Z,96026.08
2018-06-11T03:09:44.906Z,96029.05
2018-06-11T03:12:12.222Z,96030.37
2018-06-11T03:14:39.444Z,96029.03
2018-06-11T03:17:06.766Z,96024.42
2018-06-11T03:19:34.061Z,96022.95
2018-06-11T03:22:01.294Z,96021.63
2018-06-11T03:24:28.630Z,96018.64
2018-06-11T03:26:55.834Z,96019.29
2018-06-11T03:29:23.130Z,96022.27
2018-06-11T03:31:50.424Z,96014.68
2018-06-11T03:34:17.645Z,96021.78
2018-06-11T03:36:44.975Z,96020.30
2018-06-11T03:39:12.231Z,96016.84
2018-06-11T03:41:39.532Z,95928.00
2018-06-11T03:44:06.816Z,96024.27
2018-06-11T03:46:34.129Z,96020.00
2018-06-11T03:49:01.438Z,96011.23
2018-06-11T03:51:28.733Z,96014.35
2018-06-11T03:53:55.999Z,96014.69
2018-06-11T03:56:23.299Z,96009.41
2018-06-11T03:58:50.580Z,96010.22
2018-06-11T04:01:17.919Z,96012.88
2018-06-11T04:03:45.240Z,96009.39
2018-06-11T04:06:12.511Z,96012.22
2018-06-11T04:08:39.816Z,96011.42
2018-06-11T04:11:07.194Z,96011.72
2018-06-11T04:13:34.456Z,96006.91
2018-06-11T04:16:01.854Z,96003.73
2018-06-11T04:18:29.105Z,96000.73
2018-06-11T04:20:56.282Z,95997.57
2018-06-11T04:23:23.652Z,95987.80
2018-06-11T04:25:51.000Z,95990.48
2018-06-11T04:28:18.329Z,95987.83
2018-06-11T04:30:45.677Z,95992.13
2018-06-11T04:33:12.984Z,95989.61
2018-06-11T04:35:40.309Z,95984.47
2018-06-11T04:38:07.585Z,95985.40
2018-06-11T04:40:34.791Z,95989.40
2018-06-11T04:43:02.042Z,95987.56
2018-06-11T04:45:29.341Z,95987.08
2018-06-11T04:47:56.629Z,95989.21
2018-06-11T04:50:23.924Z,95998.34
2018-06-11T04:52:51.253Z,95991.37
2018-06-11T04:55:18.760Z,95983.95
2018-06-11T04:57:46.368Z,95983.66
2018-06-11T05:00:13.677Z,95978.03
2018-06-11T05:02:40.995Z,95971.42
2018-06-11T05:05:08.361Z,95979.99
2018-06-11T05:07:35.680Z,95980.11
2018-06-11T05:10:03.203Z,95970.24
2018-06-11T05:12:30.405Z,95973.31
2018-06-11T05:15:05.239Z,95973.89
2018-06-11T05:17:32.562Z,95979.56
2018-06-11T05:19:59.897Z,95967.61
2018-06-11T05:22:27.170Z,95971.45
2018-06-11T05:24:54.411Z,95968.37
2018-06-11T05:27:21.690Z,95970.00
2018-06-11T05:29:48.967Z,95972.12
2018-06-11T05:32:16.223Z,95976.33
2018-06-11T05:34:43.485Z,95965.73
2018-06-11T05:37:10.764Z,95976.89
2018-06-11T05:39:38.028Z,95971.18
2018-06-11T05:42:05.533Z,95979.61
2018-06-11T05:44:32.919Z,95977.34
2018-06-11T05:47:00.193Z,95982.93
2018-06-11T05:49:27.572Z,95983.25
2018-06-11T05:51:54.927Z,95983.31
2018-06-11T05:54:22.242Z,95987.35
2018-06-11T05:56:49.439Z,95999.42
2018-06-11T05:59:16.770Z,96001.20
2018-06-11T06:01:44.130Z,95999.96
2018-06-11T06:04:11.492Z,96008.52
2018-06-11T06:06:38.695Z,96012.17
2018-06-11T06:09:06.671Z,96014.00
2018-06-11T06:11:34.047Z,96019.19
2018-06-11T06:14:01.548Z,96016.71
2018-06-11T06:16:28.800Z,96021.38
2018-06-11T06:18:56.059Z,96016.15
2018-06-11T06:21:23.348Z,96014.27
2018-06-11T06:23:50.621Z,96015.35
2018-06-11T06:26:18.016Z,96007.56
2018-06-11T06:28:45.318Z,95907.55
2018-06-11T06:31:12.587Z,95999.55
2018-06-11T06:33:39.866Z,95998.67
2018-06-11T06:36:07.259Z,96008.78
2018-06-11T06:38:34.482Z,96009.83
2018-06-11T06:41:01.789Z,96010.62
2018-06-11T06:43:29.091Z,96012.05
2018-06-11T06:45:56.372Z,96004.48
2018-06-11T06:48:23.746Z,96016.18
2018-06-11T06:50:51.107Z,96025.20
2018-06-11T06:53:18.392Z,96024.58
2018-06-11T06:55:45.694Z,96020.28
2018-06-11T06:58:12.985Z,96020.95
2018-06-11T07:00:40.260Z,96024.73
2018-06-11T07:03:07.594Z,96017.65
2018-06-11T07:05:34.825Z,96011.71
2018-06-11T07:08:02.101Z,96009.98
2018-06-11T07:10:29.476Z,96017.56
2018-06-11T07:12:56.775Z,96003.20
2018-06-11T07:15:24.093Z,96009.20
2018-06-11T07:17:51.353Z,96003.80
2018-06-11T07:20:18.613Z,96002.73
2018-06-11T07:22:45.875Z,96000.91
2018-06-11T07:25:13.370Z,96005.23
2018-06-11T07:27:40.699Z,96003.90
2018-06-11T07:30:07.979Z,96008.20
2018-06-11T07:32:35.332Z,96005.79
2018-06-11T07:35:02.751Z,96002.23
2018-06-11T07:37:30.109Z,95999.66
2018-06-11T07:39:57.384Z,95999.73
2018-06-11T07:42:24.679Z,96000.04
2018-06-11T07:44:52.065Z,95992.55
2018-06-11T07:47:19.363Z,95990.31
2018-06-11T07:49:46.720Z,95990.94
2018-06-11T07:52:14.071Z,95990.64
2018-06-11T07:54:41.287Z,95988.30
2018-06-11T07:57:08.654Z,95989.06
2018-06-11T07:59:35.984Z,95987.81
2018-06-11T08:02:03.388Z,95989.38
2018-06-11T08:04:30.612Z,95987.12
2018-06-11T08:06:57.946Z,95984.31
2018-06-11T08:09:25.210Z,95985.95
2018-06-11T08:11:52.498Z,95984.11
2018-06-11T08:14:19.746Z,95979.93
2018-06-11T08:16:47.040Z,95978.59
2018-06-11T08:19:14.272Z,95975.79
2018-06-11T08:21:41.551Z,95975.25
2018-06-11T08:24:08.809Z,95975.97
2018-06-11T08:26:36.147Z,95956.58
2018-06-11T08:29:03.459Z,95985.42
2018-06-11T08:31:30.734Z,95987.69
2018-06-11T08:33:58.090Z,95977.92
2018-06-11T08:36:25.446Z,95980.07
2018-06-11T08:38:52.684Z,95985.80
2018-06-11T08:41:19.911Z,95982.63
2018-06-11T08:43:47.145Z,95972.52
2018-06-11T08:46:14.456Z,95972.11
2018-06-11T08:48:41.759Z,95982.09
2018-06-11T08:51:09.071Z,95952.67
2018-06-11T08:53:36.370Z,95976.19
2018-06-11T08:56:03.715Z,95982.70
2018-06-11T08:58:30.983Z,95976.85
2018-06-11T09:00:58.361Z,95970.66
2018-06-11T09:03:25.627Z,95966.48
2018-06-11T09:05:52.971Z,95969.54
2018-06-11T09:08:20.313Z,95969.30
2018-06-11T09:10:47.612Z,95969.17
2018-06-11T09:13:14.953Z,95970.91
2018-06-11T09:15:42.322Z,95963.42
2018-06-11T09:20:46.675Z,95964.42
2018-06-11T09:23:14.006Z,95968.75
2018-06-11T09:25:41.382Z,95965.94
2018-06-11T09:28:08.973Z,95955.23
2018-06-11T09:30:36.395Z,95958.05
2018-06-11T09:33:03.759Z,95964.42
2018-06-11T09:35:31.049Z,95966.16
2018-06-11T09:40:31.359Z,95965.69
2018-06-11T09:42:58.960Z,95965.23
2018-06-11T09:45:26.246Z,95971.51
2018-06-11T09:47:58.012Z,95968.47
2018-06-11T09:50:25.242Z,95970.11
2018-06-11T09:52:52.534Z,95969.97
2018-06-11T09:55:20.063Z,95962.69
2018-06-11T09:57:47.332Z,95961.65
2018-06-11T10:00:20.350Z,95962.83
2018-06-11T10:02:47.662Z,95969.72
2018-06-11T10:05:14.950Z,95975.55
2018-06-11T10:07:42.286Z,95976.81
2018-06-11T10:10:09.607Z,95972.06
2018-06-11T10:12:37.068Z,95970.06
2018-06-11T10:15:04.486Z,95965.73
2018-06-11T10:17:31.906Z,95963.14
2018-06-11T10:19:59.241Z,95954.50
2018-06-11T10:22:26.588Z,95950.79
2018-06-11T10:24:53.921Z,95945.98
2018-06-11T10:27:21.256Z,95944.30
2018-06-11T10:29:48.621Z,95937.41
2018-06-11T10:32:15.951Z,95934.23
2018-06-11T10:34:43.188Z,95941.83
2018-06-11T10:37:10.532Z,95943.05
2018-06-11T10:39:37.877Z,95947.98
2018-06-11T10:42:05.330Z,95936.78
2018-06-11T10:44:32.973Z,95925.86
2018-06-11T10:47:00.593Z,95924.20
2018-06-11T10:49:28.262Z,95920.25
2018-06-11T10:51:56.233Z,95925.88
2018-06-11T10:54:23.797Z,95919.15
2018-06-11T10:56:51.595Z,95914.66
2018-06-11T10:59:18.854Z,95918.38
2018-06-11T11:01:46.172Z,95930.88
2018-06-11T11:04:13.494Z,95931.70
2018-06-11T11:06:40.799Z,95938.63
2018-06-11T11:09:08.147Z,95929.56
2018-06-11T11:11:35.468Z,95920.05
2018-06-11T11:14:02.860Z,95915.59
2018-06-11T11:16:30.170Z,95915.89
2018-06-11T11:18:57.547Z,95922.38
2018-06-11T11:21:24.923Z,95922.11
2018-06-11T11:23:52.302Z,95912.98
2018-06-11T11:26:19.633Z,95908.80
2018-06-11T11:28:46.906Z,95914.05
2018-06-11T11:31:14.142Z,95910.81
2018-06-11T11:33:41.526Z,95910.55
2018-06-11T11:36:08.752Z,95911.28
2018-06-11T11:38:36.102Z,95906.22
2018-06-11T11:41:03.399Z,95903.69
2018-06-11T11:43:30.763Z,95901.45
2018-06-11T11:45:58.090Z,95899.54
2018-06-11T11:48:25.435Z,95908.30
2018-06-11T11:53:45.858Z,95913.45
2018-06-11T11:56:13.207Z,95908.54
2018-06-11T11:58:40.529Z,95912.70
2018-06-11T12:01:07.841Z,95914.14
2018-06-11T12:03:35.264Z,95908.84
2018-06-11T12:06:02.702Z,95907.89
2018-06-11T12:08:30.178Z,95904.09
2018-06-11T12:10:57.459Z,95901.05
2018-06-11T12:13:24.957Z,95897.19
2018-06-11T12:15:52.246Z,95904.28
2018-06-11T12:21:12.167Z,95895.02
2018-06-11T12:23:39.523Z,95894.34
2018-06-11T12:26:06.870Z,95891.20
2018-06-11T12:28:52.862Z,95874.79
2018-06-11T12:31:20.192Z,95873.71
2018-06-11T12:33:47.653Z,95867.92
2018-06-11T12:36:14.981Z,95868.90
2018-06-11T12:38:46.160Z,95855.63
2018-06-11T12:41:13.702Z,95851.27
2018-06-11T12:43:40.990Z,95840.50
2018-06-11T12:46:08.282Z,95827.54
2018-06-11T12:48:35.625Z,95835.05
2018-06-11T12:51:02.918Z,95836.23
2018-06-11T12:53:30.245Z,95828.10
2018-06-11T12:55:57.624Z,95812.70
2018-06-11T12:58:24.883Z,95806.95
2018-06-11T13:00:52.204Z,95797.48
2018-06-11T13:03:19.559Z,95794.52
2018-06-11T13:05:46.904Z,95791.25
2018-06-11T13:08:14.292Z,95786.63
2018-06-11T13:10:41.655Z,95785.42
2018-06-11T13:13:08.983Z,95790.03
2018-06-11T13:15:36.298Z,95784.00
2018-06-11T13:18:03.669Z,95787.25
2018-06-11T13:20:30.939Z,95780.83
2018-06-11T13:22:58.317Z,95769.56
2018-06-11T13:25:25.655Z,95764.75
2018-06-11T13:27:52.947Z,95766.89
2018-06-11T13:30:20.230Z,95769.88
2018-06-11T13:32:47.705Z,95761.77
2018-06-11T13:35:15.025Z,95753.63
2018-06-11T13:37:42.513Z,95758.87
2018-06-11T13:40:09.816Z,95766.45
2018-06-11T13:42:37.100Z,95766.32
2018-06-11T13:45:04.693Z,95766.62
2018-06-11T13:47:32.196Z,95760.08
2018-06-11T13:49:59.549Z,95752.88
2018-06-11T13:52:26.912Z,95743.48
2018-06-11T13:54:54.205Z,95746.59
2018-06-11T13:57:21.475Z,95741.33
2018-06-11T13:59:48.798Z,95747.20
2018-06-11T14:02:16.089Z,95750.25
2018-06-11T14:04:43.443Z,95738.96
2018-06-11T14:07:10.762Z,95735.91
2018-06-11T14:09:38.113Z,95733.16
2018-06-11T14:12:05.515Z,95727.73
2018-06-11T14:14:32.889Z,95726.44
2018-06-11T14:17:00.179Z,95725.07
2018-06-11T14:19:27.416Z,95724.53
2018-06-11T14:21:54.705Z,95726.19
2018-06-11T14:24:22.027Z,95732.80
2018-06-11T14:26:49.312Z,95741.22
2018-06-11T14:29:16.678Z,95747.39
2018-06-11T14:31:44.052Z,95749.38
2018-06-11T14:34:11.328Z,95745.80
2018-06-11T14:36:38.653Z,95749.08
2018-06-11T14:39:07.867Z,95754.59
2018-06-11T14:41:35.179Z,95759.81
2018-06-11T14:44:02.492Z,95757.52
2018-06-11T14:46:29.762Z,95765.48
2018-06-11T14:48:57.066Z,95760.55
2018-06-11T14:51:24.372Z,95759.48
2018-06-11T14:53:51.643Z,95763.78
2018-06-11T14:56:19.000Z,95766.38
2018-06-11T14:58:46.246Z,95764.08
2018-06-11T15:01:13.555Z,95765.02
2018-06-11T15:03:40.849Z,95765.97
2018-06-11T15:06:08.239Z,95764.69
2018-06-11T15:08:35.560Z,95775.81
2018-06-11T15:11:02.853Z,95779.16
2018-06-11T15:13:30.165Z,95782.56
2018-06-11T15:15:57.484Z,95778.96
2018-06-11T15:18:24.830Z,95785.92
2018-06-11T15:20:52.122Z,95672.83
2018-06-11T15:23:19.351Z,95786.34
2018-06-11T15:25:46.581Z,95776.80
2018-06-11T15:28:13.874Z,95767.69
2018-06-11T15:30:41.189Z,95782.52
2018-06-11T15:33:08.557Z,95791.44
2018-06-11T15:35:35.894Z,95796.94
2018-06-11T15:38:03.213Z,95803.08
2018-06-11T15:40:30.446Z,95777.22
2018-06-11T15:42:57.784Z,95752.86
2018-06-11T15:45:25.065Z,95749.81
2018-06-11T15:47:52.334Z,95752.42
2018-06-11T15:50:19.648Z,95754.42
2018-06-11T15:52:46.955Z,95751.18
2018-06-11T15:55:14.286Z,95750.47
2018-06-11T15:57:41.704Z,95762.11
2018-06-11T16:00:08.983Z,95762.33
2018-06-11T16:02:36.250Z,95764.98
2018-06-11T16:05:03.650Z,95756.84
2018-06-11T16:07:30.914Z,95773.27
2018-06-11T16:09:58.247Z,95770.03
2018-06-11T16:12:25.565Z,95765.63
2018-06-11T16:14:54.876Z,95769.84
2018-06-11T16:17:22.317Z,95786.05
2018-06-11T16:19:49.860Z,95792.65
2018-06-11T16:22:17.221Z,95803.71
2018-06-11T16:24:44.742Z,95809.78
2018-06-11T16:27:12.042Z,95817.91
2018-06-11T16:29:39.348Z,95819.23
2018-06-11T16:32:06.739Z,95817.34
2018-06-11T16:34:34.030Z,95817.58
2018-06-11T16:37:01.285Z,95820.48
2018-06-11T16:39:28.522Z,95824.11
2018-06-11T16:41:56.209Z,95824.56
2018-06-11T16:44:23.516Z,95828.77
2018-06-11T16:46:51.261Z,95833.84
2018-06-11T16:49:18.527Z,95844.49
2018-06-11T16:51:45.799Z,95846.21
2018-06-11T16:54:13.105Z,95857.09
2018-06-11T16:56:40.398Z,95858.14
2018-06-11T16:59:07.625Z,95850.72
2018-06-11T17:01:34.826Z,95849.72
2018-06-11T17:04:02.214Z,95841.25
2018-06-11T17:06:29.434Z,95837.85
2018-06-11T17:08:56.834Z,95835.33
2018-06-11T17:11:24.273Z,95841.35
2018-06-11T17:13:51.765Z,95840.94
2018-06-11T17:16:19.065Z,95825.70
2018-06-11T17:18:46.447Z,95753.09
2018-06-11T17:21:13.779Z,95673.88
2018-06-11T17:23:42.267Z,95855.76
2018-06-11T17:26:09.610Z,95855.72
2018-06-11T17:28:36.936Z,95855.08
2018-06-11T17:31:04.220Z,95849.15
2018-06-11T17:33:31.510Z,95856.44
2018-06-11T17:35:58.850Z,95867.94
2018-06-11T17:38:35.564Z,95866.25
2018-06-11T17:41:03.020Z,95872.23
2018-06-11T17:43:30.270Z,95880.31
2018-06-11T17:45:57.540Z,95881.12
2018-06-11T17:48:24.842Z,95881.07
2018-06-11T17:50:52.206Z,95891.29
2018-06-11T17:53:19.514Z,95900.07
2018-06-11T17:55:46.734Z,95889.69
2018-06-11T17:58:14.012Z,95890.01
2018-06-11T18:00:41.328Z,95886.80
2018-06-11T18:03:08.659Z,95897.08
2018-06-11T18:05:35.960Z,95899.73
2018-06-11T18:08:03.320Z,95903.69
2018-06-11T18:10:30.671Z,95906.95
2018-06-11T18:12:57.914Z,95908.95
2018-06-11T18:15:25.296Z,95909.83
2018-06-11T18:17:52.597Z,95908.32
2018-06-11T18:20:19.839Z,95915.58
2018-06-11T18:22:47.059Z,95887.39
2018-06-11T18:25:47.775Z,95907.03
2018-06-11T18:28:15.089Z,95908.99
2018-06-11T18:30:42.446Z,95909.34
2018-06-11T18:33:09.773Z,95905.70
2018-06-11T18:35:37.069Z,95899.77
2018-06-11T18:38:04.446Z,95902.43
2018-06-11T18:40:31.733Z,95908.68
2018-06-11T18:42:59.076Z,95894.18
2018-06-11T18:45:26.491Z,95892.69
2018-06-11T18:48:06.458Z,95891.87
2018-06-11T18:50:35.188Z,95885.56
2018-06-11T18:53:02.496Z,95887.06
2018-06-11T18:55:29.755Z,95886.07
2018-06-11T18:57:57.145Z,95881.58
2018-06-11T19:00:24.468Z,95879.61
2018-06-11T19:02:51.743Z,95872.03
2018-06-11T19:05:19.021Z,95867.41
2018-06-11T19:07:46.294Z,95860.02
2018-06-11T19:10:13.612Z,95869.60
2018-06-11T19:12:40.888Z,95869.13
2018-06-11T19:15:08.295Z,95876.71
2018-06-11T19:17:35.572Z,95878.86
2018-06-11T19:20:03.553Z,95885.80
2018-06-11T19:22:30.988Z,95888.27
2018-06-11T19:25:07.413Z,95890.27
2018-06-11T19:27:40.833Z,95883.81
2018-06-11T19:30:08.554Z,95887.61
2018-06-11T19:32:35.827Z,95889.59
2018-06-11T19:35:03.211Z,95885.14
2018-06-11T19:37:30.516Z,95882.66
2018-06-11T19:39:58.091Z,95888.41
2018-06-11T19:42:25.502Z,95880.66
2018-06-11T19:44:53.454Z,95876.52
2018-06-11T19:47:20.811Z,95879.31
2018-06-11T19:49:48.189Z,95880.95
2018-06-11T19:52:22.212Z,95889.73
2018-06-11T19:54:50.239Z,95898.81
2018-06-11T19:57:23.095Z,95898.50
2018-06-11T19:59:54.345Z,95904.45
2018-06-11T20:02:21.840Z,95909.73
2018-06-11T20:04:49.198Z,95914.34
2018-06-11T20:07:16.481Z,95917.14
2018-06-11T20:09:44.229Z,95915.67
2018-06-11T20:12:15.324Z,95913.68
2018-06-11T20:17:35.982Z,95918.30
2018-06-11T20:20:03.407Z,95921.27
2018-06-11T20:22:30.834Z,95926.22
2018-06-11T20:24:58.286Z,95930.17
2018-06-11T20:27:25.583Z,95929.83
2018-06-11T20:29:52.924Z,95928.84
2018-06-11T20:32:20.897Z,95927.86
2018-06-11T20:34:48.321Z,95924.54
2018-06-11T20:37:16.616Z,95923.23
2018-06-11T20:39:47.998Z,95924.23
2018-06-11T20:42:19.009Z,95919.95
2018-06-11T20:44:46.446Z,95906.38
2018-06-11T20:47:13.757Z,95899.46
2018-06-11T20:49:41.063Z,95898.30
2018-06-11T20:52:08.300Z,95890.70
2018-06-11T20:54:35.650Z,95892.53
2018-06-11T20:57:02.972Z,95887.27
2018-06-11T20:59:30.268Z,95884.95
2018-06-11T21:01:57.640Z,95881.64
2018-06-11T21:04:25.077Z,95890.23
2018-06-11T21:06:52.407Z,95888.94
2018-06-11T21:09:19.732Z,95886.13
2018-06-11T21:11:47.113Z,95878.37
2018-06-11T21:14:14.469Z,95878.21
2018-06-11T21:16:41.833Z,95875.91
2018-06-11T21:19:09.136Z,95880.36
2018-06-11T21:21:36.477Z,95884.62
2018-06-11T21:24:03.793Z,95883.95
2018-06-11T21:26:31.146Z,95887.41
2018-06-11T21:28:58.434Z,95883.14
2018-06-11T21:31:25.673Z,95886.73
2018-06-11T21:33:53.108Z,95887.92
2018-06-11T21:36:20.490Z,95890.56
2018-06-11T21:38:47.851Z,95900.45
2018-06-11T21:41:15.162Z,95899.13
2018-06-11T21:43:42.543Z,95902.77
2018-06-11T21:46:10.047Z,95907.08
2018-06-11T21:48:37.370Z,95906.11
2018-06-11T21:51:04.787Z,95912.38
2018-06-11T21:53:32.230Z,95896.52
2018-06-11T21:55:59.506Z,95895.72
2018-06-11T21:58:26.774Z,95896.52
2018-06-11T22:00:54.149Z,95891.42
2018-06-11T22:03:21.450Z,95895.86
2018-06-11T22:05:48.938Z,95900.66
2018-06-11T22:08:16.291Z,95904.13
2018-06-11T22:10:43.549Z,95894.70
2018-06-11T22:13:10.922Z,95889.27
2018-06-11T22:15:38.247Z,95889.93
2018-06-11T22:18:05.728Z,95889.62
2018-06-11T22:20:33.063Z,95885.98
2018-06-11T22:23:00.268Z,95891.57
2018-06-11T22:25:27.564Z,95882.02
2018-06-11T22:27:54.848Z,95877.39
2018-06-11T22:30:22.191Z,95873.25
2018-06-11T22:32:49.382Z,95874.75
2018-06-11T22:35:16.731Z,95877.36
2018-06-11T22:37:44.084Z,95877.03
2018-06-11T22:40:11.376Z,95879.00
2018-06-11T22:42:38.756Z,95883.33
2018-06-11T22:45:06.123Z,95887.45
2018-06-11T22:47:33.500Z,95892.07
2018-06-11T22:50:00.892Z,95896.81
2018-06-11T22:52:28.350Z,95889.91
2018-06-11T22:54:55.677Z,95887.63
2018-06-11T22:57:23.002Z,95873.91
2018-06-11T22:59:50.293Z,95882.45
2018-06-11T23:02:17.673Z,95885.59
2018-06-11T23:04:44.947Z,95889.88
2018-06-11T23:07:12.225Z,95890.27
2018-06-11T23:09:39.536Z,95893.02
2018-06-11T23:12:06.903Z,95903.73
2018-06-11T23:14:34.287Z,95902.73
2018-06-11T23:17:01.707Z,95906.02
2018-06-11T23:19:29.038Z,95897.62
2018-06-11T23:21:56.438Z,95896.97
2018-06-11T23:24:23.718Z,95894.52
2018-06-11T23:26:50.923Z,95886.76
2018-06-11T23:29:18.267Z,95883.95
2018-06-11T23:31:45.666Z,95878.17
2018-06-11T23:34:12.994Z,95872.42
2018-06-11T23:36:40.224Z,95873.56
2018-06-11T23:39:07.562Z,95876.72
2018-06-11T23:41:35.039Z,95881.96
2018-06-11T23:44:03.149Z,95883.28
2018-06-11T23:46:30.466Z,95883.27
2018-06-11T23:48:57.743Z,95876.52
2018-06-11T23:51:25.225Z,95871.41
2018-06-11T23:53:52.572Z,95866.46
2018-06-11T23:56:19.840Z,95872.04
2018-06-11T23:58:47.176Z,95870.70
